createdAt,value
2018-04-17T00:00:29.601Z,10.90
2018-04-17T00:02:55.559Z,10.89
2018-04-17T00:05:21.481Z,10.94
2018-04-17T00:07:47.377Z,10.99
2018-04-17T00:10:13.273Z,10.96
2018-04-17T00:12:39.235Z,10.99
2018-04-17T00:15:05.236Z,11.02
2018-04-17T00:17:31.119Z,11.02
2018-04-17T00:19:57.060Z,10.97
2018-04-17T00:22:22.946Z,10.93
2018-04-17T00:24:48.831Z,10.89
2018-04-17T00:27:14.928Z,10.86
2018-04-17T00:29:40.803Z,10.82
2018-04-17T00:32:06.680Z,10.78
2018-04-17T00:34:32.638Z,10.69
2018-04-17T00:36:58.513Z,10.60
2018-04-17T00:39:24.486Z,10.64
2018-04-17T00:41:50.596Z,10.63
2018-04-17T00:44:17.542Z,10.60
2018-04-17T00:46:43.429Z,10.53
2018-04-17T00:49:09.375Z,10.57
2018-04-17T00:51:35.817Z,10.55
2018-04-17T00:54:04.719Z,10.53
2018-04-17T00:56:30.655Z,10.47
2018-04-17T00:58:56.541Z,10.36
2018-04-17T01:01:22.419Z,10.43
2018-04-17T01:03:48.440Z,10.33
2018-04-17T01:06:14.312Z,10.29
2018-04-17T01:08:40.208Z,10.27
2018-04-17T01:11:06.293Z,10.27
2018-04-17T01:13:32.168Z,10.34
2018-04-17T01:15:58.146Z,10.29
2018-04-17T01:18:27.205Z,10.18
2018-04-17T01:20:53.109Z,10.16
2018-04-17T01:23:19.005Z,10.12
2018-04-17T01:25:44.942Z,10.23
2018-04-17T01:28:10.906Z,10.12
2018-04-17T01:30:36.780Z,10.18
2018-04-17T01:33:02.700Z,10.22
2018-04-17T01:35:28.588Z,10.16
2018-04-17T01:37:55.565Z,10.24
2018-04-17T01:40:21.565Z,10.08
2018-04-17T01:42:47.435Z,10.12
2018-04-17T01:45:13.327Z,10.17
2018-04-17T01:47:39.251Z,10.08
2018-04-17T01:50:05.152Z,10.11
2018-04-17T01:52:31.189Z,10.09
2018-04-17T01:54:57.133Z,10.03
2018-04-17T01:57:23.060Z,10.02
2018-04-17T01:59:48.977Z,10.04
2018-04-17T02:02:14.912Z,9.97
2018-04-17T02:04:43.722Z,10.00
2018-04-17T02:07:09.588Z,9.95
2018-04-17T02:09:35.688Z,9.91
2018-04-17T02:12:01.580Z,9.80
2018-04-17T02:14:27.503Z,9.82
2018-04-17T02:16:53.573Z,9.77
2018-04-17T02:19:19.453Z,9.72
2018-04-17T02:21:45.324Z,9.77
2018-04-17T02:24:11.249Z,9.69
2018-04-17T02:26:37.188Z,9.66
2018-04-17T02:29:03.160Z,9.62
2018-04-17T02:31:29.075Z,9.70
2018-04-17T02:33:55.024Z,9.59
2018-04-17T02:36:20.892Z,9.63
2018-04-17T02:38:46.942Z,9.54
2018-04-17T02:41:12.907Z,9.45
2018-04-17T02:43:38.777Z,9.44
2018-04-17T02:46:04.729Z,9.42
2018-04-17T02:48:30.611Z,9.39
2018-04-17T02:50:56.520Z,9.35
2018-04-17T02:53:22.523Z,9.27
2018-04-17T02:55:48.384Z,9.24
2018-04-17T02:58:14.279Z,9.15
2018-04-17T03:00:40.203Z,9.08
2018-04-17T03:03:06.096Z,9.04
2018-04-17T03:05:32.076Z,8.97
2018-04-17T03:07:57.971Z,8.90
2018-04-17T03:10:23.847Z,8.87
2018-04-17T03:12:49.740Z,8.73
2018-04-17T03:15:15.669Z,8.68
2018-04-17T03:17:41.629Z,8.63
2018-04-17T03:20:07.529Z,8.62
2018-04-17T03:22:33.443Z,8.66
2018-04-17T03:24:59.356Z,8.62
2018-04-17T03:27:25.257Z,8.58
2018-04-17T03:29:51.288Z,8.54
2018-04-17T03:32:17.172Z,8.49
2018-04-17T03:34:43.080Z,8.45
2018-04-17T03:37:09.023Z,8.42
2018-04-17T03:39:34.897Z,8.44
2018-04-17T03:42:00.880Z,8.38
2018-04-17T03:44:26.799Z,8.30
2018-04-17T03:46:52.690Z,8.29
2018-04-17T03:49:18.565Z,8.22
2018-04-17T03:51:45.403Z,8.20
2018-04-17T03:54:11.400Z,8.16
2018-04-17T03:56:37.283Z,8.16
2018-04-17T03:59:03.227Z,8.12
2018-04-17T04:01:29.138Z,8.10
2018-04-17T04:03:55.105Z,8.09
2018-04-17T04:06:21.193Z,8.13
2018-04-17T04:08:47.071Z,8.08
2018-04-17T04:11:12.952Z,8.02
2018-04-17T04:13:39.042Z,8.00
2018-04-17T04:16:05.040Z,8.01
2018-04-17T04:21:47.096Z,7.90
2018-04-17T04:24:25.351Z,7.92
2018-04-17T04:26:51.324Z,7.90
2018-04-17T04:29:17.285Z,7.86
2018-04-17T04:31:43.216Z,7.85
2018-04-17T04:34:09.092Z,7.85
2018-04-17T04:36:34.996Z,7.82
2018-04-17T04:39:00.998Z,7.88
2018-04-17T04:41:27.005Z,7.85
2018-04-17T04:43:53.733Z,7.95
2018-04-17T04:46:19.659Z,7.98
2018-04-17T04:48:45.556Z,8.03
2018-04-17T04:51:11.526Z,8.06
2018-04-17T04:53:37.557Z,8.07
2018-04-17T04:56:03.515Z,8.10
2018-04-17T04:58:29.403Z,8.10
2018-04-17T05:00:55.332Z,8.18
2018-04-17T05:03:21.256Z,8.26
2018-04-17T05:05:47.219Z,8.29
2018-04-17T05:08:13.135Z,8.37
2018-04-17T05:10:38.997Z,8.46
2018-04-17T05:13:04.897Z,8.57
2018-04-17T05:15:30.872Z,8.64
2018-04-17T05:17:56.830Z,8.61
2018-04-17T05:20:22.699Z,8.66
2018-04-17T05:22:48.735Z,8.65
2018-04-17T05:25:14.597Z,8.80
2018-04-17T05:27:40.552Z,8.88
2018-04-17T05:30:06.560Z,8.93
2018-04-17T05:32:32.411Z,9.03
2018-04-17T05:34:58.263Z,9.18
2018-04-17T05:37:24.187Z,9.29
2018-04-17T05:39:51.151Z,9.42
2018-04-17T05:42:17.176Z,9.54
2018-04-17T05:44:43.110Z,9.63
2018-04-17T05:47:08.987Z,9.74
2018-04-17T05:49:34.942Z,9.80
2018-04-17T05:52:00.903Z,9.97
2018-04-17T05:54:26.895Z,10.02
2018-04-17T05:56:52.875Z,10.10
2018-04-17T05:59:19.109Z,10.21
2018-04-17T06:01:45.876Z,10.15
2018-04-17T06:04:11.836Z,10.32
2018-04-17T06:06:37.840Z,10.33
2018-04-17T06:09:03.760Z,10.40
2018-04-17T06:11:29.638Z,10.43
2018-04-17T06:13:55.559Z,10.55
2018-04-17T06:16:21.498Z,10.69
2018-04-17T06:18:47.546Z,10.66
2018-04-17T06:21:13.458Z,10.77
2018-04-17T06:23:39.327Z,10.93
2018-04-17T06:26:05.249Z,11.01
2018-04-17T06:28:31.196Z,11.14
2018-04-17T06:30:57.222Z,11.24
2018-04-17T06:33:23.108Z,11.22
2018-04-17T06:35:49.019Z,11.14
2018-04-17T06:38:15.948Z,11.08
2018-04-17T06:40:41.881Z,11.32
2018-04-17T06:43:07.980Z,11.56
2018-04-17T06:45:34.012Z,11.42
2018-04-17T06:47:59.876Z,11.66
2018-04-17T06:50:25.934Z,11.63
2018-04-17T06:52:51.924Z,11.54
2018-04-17T06:55:17.886Z,11.39
2018-04-17T06:57:44.927Z,11.78
2018-04-17T07:00:10.832Z,11.94
2018-04-17T07:02:36.712Z,11.89
2018-04-17T07:05:03.585Z,11.82
2018-04-17T07:07:29.578Z,11.91
2018-04-17T07:09:55.443Z,11.87
2018-04-17T07:12:21.463Z,11.88
2018-04-17T07:14:47.339Z,12.20
2018-04-17T07:17:13.288Z,12.28
2018-04-17T07:19:48.716Z,12.53
2018-04-17T07:22:14.588Z,12.64
2018-04-17T07:24:42.578Z,12.85
2018-04-17T07:27:09.067Z,12.96
2018-04-17T07:29:34.991Z,13.08
2018-04-17T07:32:04.393Z,13.13
2018-04-17T07:34:30.489Z,13.02
2018-04-17T07:36:56.364Z,12.97
2018-04-17T07:39:22.255Z,13.16
2018-04-17T07:41:48.233Z,13.45
2018-04-17T07:44:14.287Z,13.71
2018-04-17T07:46:40.179Z,13.90
2018-04-17T07:49:06.132Z,14.06
2018-04-17T07:51:33.122Z,14.12
2018-04-17T07:54:01.956Z,14.36
2018-04-17T07:56:33.680Z,14.51
2018-04-17T07:58:59.593Z,14.53
2018-04-17T08:01:25.473Z,14.75
2018-04-17T08:03:51.397Z,14.83
2018-04-17T08:06:19.633Z,14.82
2018-04-17T08:08:48.909Z,15.09
2018-04-17T08:11:15.294Z,15.42
2018-04-17T08:13:41.247Z,15.62
2018-04-17T08:16:07.191Z,15.98
2018-04-17T08:18:33.769Z,16.16
2018-04-17T08:20:59.872Z,16.36
2018-04-17T08:23:26.086Z,16.52
2018-04-17T08:25:52.175Z,16.40
2018-04-17T08:28:18.056Z,16.28
2018-04-17T08:30:45.068Z,16.24
2018-04-17T08:33:11.068Z,16.24
2018-04-17T08:35:36.936Z,16.58
2018-04-17T08:38:02.829Z,16.67
2018-04-17T08:40:28.918Z,16.78
2018-04-17T08:42:55.128Z,16.84
2018-04-17T08:45:21.156Z,16.83
2018-04-17T08:47:47.577Z,17.13
2018-04-17T08:50:13.466Z,17.24
2018-04-17T08:52:39.331Z,17.24
2018-04-17T08:55:05.380Z,17.52
2018-04-17T08:57:31.412Z,17.53
2018-04-17T08:59:57.564Z,17.44
2018-04-17T09:02:24.556Z,17.39
2018-04-17T09:04:51.521Z,17.39
2018-04-17T09:07:17.824Z,17.50
2018-04-17T09:09:43.831Z,17.49
2018-04-17T09:12:09.713Z,17.89
2018-04-17T09:14:35.608Z,17.97
2018-04-17T09:17:01.571Z,18.16
2018-04-17T09:19:27.984Z,17.99
2018-04-17T09:21:53.972Z,18.08
2018-04-17T09:24:19.868Z,18.43
2018-04-17T09:26:45.808Z,18.61
2018-04-17T09:29:11.696Z,18.90
2018-04-17T09:31:38.120Z,18.69
2018-04-17T09:34:04.156Z,18.82
2018-04-17T09:36:30.032Z,19.09
2018-04-17T09:38:56.354Z,19.43
2018-04-17T09:41:22.268Z,19.43
2018-04-17T09:43:48.192Z,19.68
2018-04-17T09:46:14.188Z,19.92
2018-04-17T09:48:41.300Z,20.11
2018-04-17T09:51:07.180Z,19.96
2018-04-17T09:53:33.115Z,19.52
2018-04-17T09:56:02.823Z,19.85
2018-04-17T09:58:28.863Z,20.03
2018-04-17T10:00:57.671Z,19.98
2018-04-17T10:03:23.552Z,19.97
2018-04-17T10:05:49.453Z,20.45
2018-04-17T10:08:15.418Z,21.00
2018-04-17T10:10:41.436Z,21.01
2018-04-17T10:13:07.305Z,20.90
2018-04-17T10:15:33.212Z,20.96
2018-04-17T10:17:59.080Z,20.71
2018-04-17T10:20:27.155Z,21.06
2018-04-17T10:22:53.160Z,21.18
2018-04-17T10:25:19.042Z,20.91
2018-04-17T10:27:44.924Z,21.14
2018-04-17T10:30:10.858Z,21.12
2018-04-17T10:32:36.723Z,21.48
2018-04-17T10:35:02.650Z,21.82
2018-04-17T10:37:28.647Z,21.69
2018-04-17T10:39:54.530Z,21.20
2018-04-17T10:42:20.415Z,21.50
2018-04-17T10:44:46.348Z,21.89
2018-04-17T10:47:12.208Z,21.54
2018-04-17T10:49:39.191Z,21.92
2018-04-17T10:52:05.120Z,22.05
2018-04-17T10:54:30.991Z,22.61
2018-04-17T10:56:56.889Z,22.32
2018-04-17T10:59:22.804Z,22.69
2018-04-17T11:01:48.753Z,23.20
2018-04-17T11:04:15.053Z,22.94
2018-04-17T11:06:41.038Z,22.96
2018-04-17T11:09:06.916Z,22.65
2018-04-17T11:11:32.781Z,22.52
2018-04-17T11:13:58.710Z,22.24
2018-04-17T11:16:24.567Z,22.94
2018-04-17T11:18:51.196Z,22.91
2018-04-17T11:21:17.103Z,22.44
2018-04-17T11:23:43.085Z,22.83
2018-04-17T11:26:09.573Z,23.40
2018-04-17T11:28:35.504Z,23.17
2018-04-17T11:31:01.405Z,23.17
2018-04-17T11:33:27.296Z,23.74
2018-04-17T11:35:53.328Z,24.09
2018-04-17T11:38:19.205Z,24.00
2018-04-17T11:40:45.070Z,22.90
2018-04-17T11:43:10.996Z,22.94
2018-04-17T11:45:36.872Z,23.06
2018-04-17T11:48:02.832Z,22.91
2018-04-17T11:50:28.751Z,23.31
2018-04-17T11:52:54.661Z,23.55
2018-04-17T11:55:20.533Z,23.90
2018-04-17T11:57:46.458Z,23.15
2018-04-17T12:00:12.508Z,23.02
2018-04-17T12:02:38.360Z,22.82
2018-04-17T12:05:04.416Z,22.21
2018-04-17T12:07:30.305Z,22.56
2018-04-17T12:09:56.189Z,22.73
2018-04-17T12:12:22.183Z,22.36
2018-04-17T12:14:48.070Z,22.29
2018-04-17T12:17:13.988Z,22.22
2018-04-17T12:19:39.896Z,21.52
2018-04-17T12:22:05.759Z,20.90
2018-04-17T12:24:31.727Z,20.87
2018-04-17T12:26:57.640Z,20.67
2018-04-17T12:29:23.503Z,20.52
2018-04-17T12:31:49.378Z,20.58
2018-04-17T12:34:15.303Z,20.54
2018-04-17T12:36:41.272Z,20.57
2018-04-17T12:39:07.136Z,20.60
2018-04-17T12:41:33.451Z,20.79
2018-04-17T12:43:59.328Z,20.59
2018-04-17T12:46:25.220Z,20.46
2018-04-17T12:48:51.208Z,20.36
2018-04-17T12:51:17.072Z,20.37
2018-04-17T12:53:42.951Z,20.35
2018-04-17T12:56:09.033Z,20.18
2018-04-17T12:58:34.901Z,20.26
2018-04-17T13:01:00.863Z,20.46
2018-04-17T13:03:26.813Z,20.48
2018-04-17T13:05:52.676Z,20.06
2018-04-17T13:08:18.561Z,20.21
2018-04-17T13:10:44.485Z,20.45
2018-04-17T13:13:10.443Z,20.37
2018-04-17T13:15:36.329Z,20.40
2018-04-17T13:18:02.244Z,20.58
2018-04-17T13:20:28.110Z,20.60
2018-04-17T13:22:54.004Z,20.46
2018-04-17T13:25:20.342Z,20.53
2018-04-17T13:27:46.210Z,20.50
2018-04-17T13:30:12.196Z,20.36
2018-04-17T13:32:38.103Z,20.18
2018-04-17T13:35:03.959Z,19.92
2018-04-17T13:37:29.951Z,20.03
2018-04-17T13:39:55.862Z,20.16
2018-04-17T13:42:21.791Z,19.97
2018-04-17T13:44:47.619Z,20.01
2018-04-17T13:47:13.552Z,19.91
2018-04-17T13:49:39.507Z,20.10
2018-04-17T13:52:05.376Z,19.96
2018-04-17T13:54:44.968Z,20.23
2018-04-17T13:57:10.861Z,20.15
2018-04-17T13:59:36.736Z,20.31
2018-04-17T14:02:02.761Z,20.47
2018-04-17T14:04:28.676Z,20.50
2018-04-17T14:06:54.605Z,20.47
2018-04-17T14:09:20.530Z,20.39
2018-04-17T14:11:46.846Z,20.42
2018-04-17T14:14:12.892Z,20.66
2018-04-17T14:16:38.827Z,20.76
2018-04-17T14:19:04.710Z,20.83
2018-04-17T14:21:30.607Z,21.04
2018-04-17T14:23:56.560Z,21.17
2018-04-17T14:26:22.539Z,20.91
2018-04-17T14:28:48.424Z,21.12
2018-04-17T14:31:14.340Z,20.75
2018-04-17T14:33:40.528Z,20.97
2018-04-17T14:36:06.408Z,20.89
2018-04-17T14:38:32.412Z,20.93
2018-04-17T14:40:58.290Z,21.14
2018-04-17T14:43:24.228Z,21.18
2018-04-17T14:45:50.185Z,21.43
2018-04-17T14:48:16.056Z,21.01
2018-04-17T14:50:42.044Z,21.30
2018-04-17T14:53:07.984Z,21.23
2018-04-17T14:55:33.860Z,21.03
2018-04-17T14:57:59.760Z,21.17
2018-04-17T15:00:25.696Z,20.98
2018-04-17T15:02:51.706Z,21.03
2018-04-17T15:05:17.588Z,21.04
2018-04-17T15:07:43.500Z,20.95
2018-04-17T15:10:09.381Z,21.00
2018-04-17T15:12:35.255Z,20.73
2018-04-17T15:15:01.280Z,20.65
2018-04-17T15:17:27.132Z,20.54
2018-04-17T15:19:52.987Z,20.53
2018-04-17T15:22:19.200Z,20.59
2018-04-17T15:24:45.084Z,20.46
2018-04-17T15:27:11.057Z,20.53
2018-04-17T15:29:37.209Z,20.45
2018-04-17T15:32:03.088Z,20.42
2018-04-17T15:34:29.056Z,20.31
2018-04-17T15:36:54.985Z,20.39
2018-04-17T15:39:20.919Z,20.28
2018-04-17T15:41:46.799Z,20.18
2018-04-17T15:44:12.723Z,20.22
2018-04-17T15:46:38.601Z,20.28
2018-04-17T15:49:04.474Z,20.24
2018-04-17T15:51:30.504Z,20.29
2018-04-17T15:53:56.402Z,20.31
2018-04-17T15:56:22.294Z,20.27
2018-04-17T15:58:48.229Z,20.39
2018-04-17T16:01:14.115Z,20.34
2018-04-17T16:03:40.915Z,20.33
2018-04-17T16:06:06.840Z,20.17
2018-04-17T16:08:32.704Z,20.16
2018-04-17T16:10:58.600Z,20.11
2018-04-17T16:13:24.794Z,20.17
2018-04-17T16:15:50.760Z,20.24
2018-04-17T16:18:16.624Z,20.10
2018-04-17T16:20:42.537Z,20.00
2018-04-17T16:23:08.409Z,19.88
2018-04-17T16:25:34.309Z,19.70
2018-04-17T16:28:00.324Z,19.77
2018-04-17T16:30:26.237Z,19.58
2018-04-17T16:32:52.123Z,19.60
2018-04-17T16:35:18.036Z,19.54
2018-04-17T16:37:43.977Z,19.41
2018-04-17T16:40:09.952Z,19.55
2018-04-17T16:42:35.896Z,19.33
2018-04-17T16:45:01.805Z,19.14
2018-04-17T16:47:27.736Z,19.06
2018-04-17T16:49:53.664Z,18.91
2018-04-17T16:52:19.653Z,18.76
2018-04-17T16:54:45.615Z,18.63
2018-04-17T16:57:11.870Z,18.42
2018-04-17T16:59:37.770Z,18.48
2018-04-17T17:02:03.667Z,18.31
2018-04-17T17:04:29.677Z,18.29
2018-04-17T17:06:55.552Z,18.14
2018-04-17T17:09:21.419Z,18.10
2018-04-17T17:11:47.361Z,18.09
2018-04-17T17:14:13.231Z,18.10
2018-04-17T17:16:39.183Z,18.02
2018-04-17T17:19:05.117Z,17.81
2018-04-17T17:21:30.991Z,17.65
2018-04-17T17:23:56.869Z,17.50
2018-04-17T17:26:22.803Z,17.30
2018-04-17T17:28:48.746Z,17.10
2018-04-17T17:31:14.604Z,16.91
2018-04-17T17:33:40.524Z,16.77
2018-04-17T17:36:06.410Z,16.62
2018-04-17T17:38:32.304Z,16.54
2018-04-17T17:40:58.321Z,16.36
2018-04-17T17:43:24.224Z,16.23
2018-04-17T17:45:50.088Z,16.09
2018-04-17T17:48:15.992Z,15.95
2018-04-17T17:50:41.883Z,15.82
2018-04-17T17:53:08.016Z,15.66
2018-04-17T17:55:33.975Z,15.51
2018-04-17T17:57:59.849Z,15.35
2018-04-17T18:00:25.745Z,15.21
2018-04-17T18:02:52.056Z,15.08
2018-04-17T18:05:18.054Z,14.93
2018-04-17T18:07:43.952Z,14.81
2018-04-17T18:10:13.535Z,14.70
2018-04-17T18:12:39.411Z,14.57
2018-04-17T18:15:05.275Z,14.48
2018-04-17T18:17:31.283Z,14.36
2018-04-17T18:19:57.144Z,14.25
2018-04-17T18:22:23.008Z,14.15
2018-04-17T18:24:48.927Z,14.04
2018-04-17T18:27:14.798Z,13.95
2018-04-17T18:29:40.772Z,13.87
2018-04-17T18:32:06.699Z,13.79
2018-04-17T18:34:32.574Z,13.70
2018-04-17T18:36:58.505Z,13.62
2018-04-17T18:39:24.451Z,13.55
2018-04-17T18:41:50.455Z,13.46
2018-04-17T18:44:16.328Z,13.39
2018-04-17T18:46:42.236Z,13.32
2018-04-17T18:49:08.144Z,13.25
2018-04-17T18:51:34.009Z,13.20
2018-04-17T18:54:00.175Z,13.14
2018-04-17T18:56:26.039Z,13.07
2018-04-17T18:58:51.916Z,13.00
2018-04-17T19:01:17.992Z,12.94
2018-04-17T19:03:43.886Z,12.88
2018-04-17T19:06:09.855Z,12.81
2018-04-17T19:08:35.800Z,12.77
2018-04-17T19:11:01.677Z,12.69
2018-04-17T19:13:28.592Z,12.64
2018-04-17T19:15:54.482Z,12.57
2018-04-17T19:18:20.485Z,12.51
2018-04-17T19:20:46.353Z,12.44
2018-04-17T19:23:12.296Z,12.40
2018-04-17T19:25:38.251Z,12.36
2018-04-17T19:28:04.136Z,12.30
2018-04-17T19:30:30.179Z,12.26
2018-04-17T19:32:56.081Z,12.22
2018-04-17T19:35:21.964Z,12.16
2018-04-17T19:37:48.356Z,12.12
2018-04-17T19:40:14.269Z,12.08
2018-04-17T19:42:40.283Z,12.04
2018-04-17T19:45:06.188Z,11.97
2018-04-17T19:47:32.083Z,11.90
2018-04-17T19:49:57.956Z,11.84
2018-04-17T19:52:23.899Z,11.79
2018-04-17T19:54:49.977Z,11.75
2018-04-17T19:57:15.843Z,11.70
2018-04-17T19:59:41.749Z,11.64
2018-04-17T20:02:07.627Z,11.59
2018-04-17T20:04:33.505Z,11.54
2018-04-17T20:06:59.892Z,11.55
2018-04-17T20:09:26.005Z,11.50
2018-04-17T20:11:51.868Z,11.46
2018-04-17T20:14:17.783Z,11.43
2018-04-17T20:16:43.644Z,11.38
2018-04-17T20:19:09.604Z,11.37
2018-04-17T20:21:35.520Z,11.34
2018-04-17T20:24:03.502Z,11.30
2018-04-17T20:26:29.744Z,11.25
2018-04-17T20:28:55.700Z,11.22
2018-04-17T20:31:21.650Z,11.20
2018-04-17T20:33:47.555Z,11.15
2018-04-17T20:36:13.477Z,11.11
2018-04-17T20:38:39.383Z,11.07
2018-04-17T20:41:05.259Z,10.91
2018-04-17T20:43:31.300Z,10.91
2018-04-17T20:45:57.174Z,11.10
2018-04-17T20:48:23.033Z,10.98
2018-04-17T20:50:48.971Z,11.02
2018-04-17T20:53:14.870Z,10.98
2018-04-17T20:55:40.839Z,10.97
2018-04-17T20:58:06.778Z,10.92
2018-04-17T21:00:32.770Z,10.87
2018-04-17T21:02:58.631Z,10.82
2018-04-17T21:05:24.553Z,10.76
2018-04-17T21:07:50.550Z,10.71
2018-04-17T21:10:16.435Z,10.71
2018-04-17T21:12:42.698Z,10.69
2018-04-17T21:15:08.581Z,10.62
2018-04-17T21:17:34.468Z,10.57
2018-04-17T21:20:00.472Z,10.52
2018-04-17T21:22:26.367Z,10.51
2018-04-17T21:24:52.308Z,10.45
2018-04-17T21:27:18.221Z,10.39
2018-04-17T21:29:44.674Z,10.36
2018-04-17T21:32:10.621Z,10.32
2018-04-17T21:34:36.535Z,10.28
2018-04-17T21:37:02.465Z,10.27
2018-04-17T21:39:28.373Z,10.24
2018-04-17T21:41:54.306Z,10.24
2018-04-17T21:44:20.340Z,10.21
2018-04-17T21:46:46.245Z,10.19
2018-04-17T21:49:12.230Z,10.14
2018-04-17T21:51:38.095Z,10.08
2018-04-17T21:54:03.970Z,10.09
2018-04-17T21:56:29.968Z,10.06
2018-04-17T21:58:55.863Z,10.04
2018-04-17T22:01:27.788Z,9.99
2018-04-17T22:03:53.697Z,9.94
2018-04-17T22:06:19.571Z,9.89
2018-04-17T22:08:45.544Z,9.89
2018-04-17T22:11:11.467Z,9.92
2018-04-17T22:13:37.456Z,9.88
2018-04-17T22:16:03.720Z,9.83
2018-04-17T22:18:30.134Z,9.83
2018-04-17T22:20:56.976Z,9.81
2018-04-17T22:23:23.333Z,9.78
2018-04-17T22:25:49.738Z,9.75
2018-04-17T22:28:15.656Z,9.72
2018-04-17T22:30:42.100Z,9.69
2018-04-17T22:33:08.495Z,9.68
2018-04-17T22:35:34.762Z,9.66
2018-04-17T22:38:00.855Z,9.60
2018-04-17T22:40:27.429Z,9.56
2018-04-17T22:42:53.829Z,9.51
2018-04-17T22:45:19.833Z,9.49
2018-04-17T22:47:46.668Z,9.44
2018-04-17T22:50:13.064Z,9.48
2018-04-17T22:52:39.485Z,9.48
2018-04-17T22:55:05.490Z,9.41
2018-04-17T22:57:31.901Z,9.37
2018-04-17T22:59:57.853Z,9.33
2018-04-17T23:02:24.088Z,9.29
2018-04-17T23:04:50.497Z,9.27
2018-04-17T23:07:16.856Z,9.24
2018-04-17T23:09:43.024Z,9.21
2018-04-17T23:12:08.915Z,9.20
2018-04-17T23:14:34.912Z,9.20
2018-04-17T23:17:00.775Z,9.22
2018-04-17T23:19:26.644Z,9.20
2018-04-17T23:21:52.602Z,9.19
2018-04-17T23:24:18.504Z,9.19
2018-04-17T23:26:44.429Z,9.18
2018-04-17T23:29:10.302Z,9.12
2018-04-17T23:31:36.210Z,9.12
2018-04-17T23:34:02.200Z,9.10
2018-04-17T23:36:28.066Z,9.12
2018-04-17T23:38:54.022Z,9.06
2018-04-17T23:41:19.897Z,8.98
2018-04-17T23:43:45.773Z,8.97
2018-04-17T23:46:11.870Z,8.98
2018-04-17T23:48:37.744Z,9.02
2018-04-17T23:51:03.663Z,9.00
2018-04-17T23:53:29.592Z,8.97
2018-04-17T23:55:55.540Z,8.93
2018-04-17T23:58:21.551Z,8.94
